sensor_id;sensor_type;location;lat;lon;timestamp;pressure;altitude;pressure_sealevel;temperature;humidity
7768;BME280;3928;42.626;23.382;2023-03-22T00:00:43;93820.81;;;12.97;87.07
7768;BME280;3928;42.626;23.382;2023-03-22T00:03:10;93816.91;;;12.85;87.18
7768;BME280;3928;42.626;23.382;2023-03-22T00:05:37;93822.56;;;12.97;86.70
7768;BME280;3928;42.626;23.382;2023-03-22T00:08:06;93765.13;;;12.43;87.82
7768;BME280;3928;42.626;23.382;2023-03-22T00:10:35;93825.72;;;12.78;86.48
7768;BME280;3928;42.626;23.382;2023-03-22T00:13:02;93821.88;;;12.65;87.84
7768;BME280;3928;42.626;23.382;2023-03-22T00:15:29;93813.34;;;12.63;88.93
7768;BME280;3928;42.626;23.382;2023-03-22T00:17:56;93825.56;;;12.58;88.54
7768;BME280;3928;42.626;23.382;2023-03-22T00:20:25;93814.97;;;12.67;88.60
7768;BME280;3928;42.626;23.382;2023-03-22T00:22:55;93812.53;;;12.63;87.96
7768;BME280;3928;42.626;23.382;2023-03-22T00:25:23;93811.56;;;12.65;88.15
7768;BME280;3928;42.626;23.382;2023-03-22T00:27:50;93815.75;;;12.69;88.51
7768;BME280;3928;42.626;23.382;2023-03-22T00:30:17;93807.38;;;12.63;88.81
7768;BME280;3928;42.626;23.382;2023-03-22T00:32:44;93815.59;;;12.74;88.32
7768;BME280;3928;42.626;23.382;2023-03-22T00:35:11;93814.41;;;12.57;88.26
7768;BME280;3928;42.626;23.382;2023-03-22T00:37:38;93803.97;;;12.62;88.10
7768;BME280;3928;42.626;23.382;2023-03-22T00:40:06;93812.13;;;12.75;88.05
7768;BME280;3928;42.626;23.382;2023-03-22T00:42:35;93790.69;;;12.74;87.81
7768;BME280;3928;42.626;23.382;2023-03-22T00:45:03;93807.94;;;12.97;88.15
7768;BME280;3928;42.626;23.382;2023-03-22T00:47:30;93804.22;;;13.06;86.75
7768;BME280;3928;42.626;23.382;2023-03-22T00:49:57;93789.84;;;12.99;86.48
7768;BME280;3928;42.626;23.382;2023-03-22T00:52:24;93798.91;;;13.10;85.50
7768;BME280;3928;42.626;23.382;2023-03-22T00:54:53;93802.38;;;13.09;85.15
7768;BME280;3928;42.626;23.382;2023-03-22T00:57:20;93799.44;;;12.95;84.89
7768;BME280;3928;42.626;23.382;2023-03-22T00:59:48;93800.91;;;13.02;85.18
7768;BME280;3928;42.626;23.382;2023-03-22T01:02:17;93804.88;;;13.11;84.99
7768;BME280;3928;42.626;23.382;2023-03-22T01:04:44;93794.16;;;12.98;84.37
7768;BME280;3928;42.626;23.382;2023-03-22T01:07:13;93794.22;;;12.97;83.63
7768;BME280;3928;42.626;23.382;2023-03-22T01:09:42;93783.25;;;12.92;83.14
7768;BME280;3928;42.626;23.382;2023-03-22T01:12:09;93797.03;;;12.91;83.84
7768;BME280;3928;42.626;23.382;2023-03-22T01:14:37;93784.06;;;12.67;84.70
7768;BME280;3928;42.626;23.382;2023-03-22T01:17:05;93790.19;;;12.63;85.63
7768;BME280;3928;42.626;23.382;2023-03-22T01:19:33;93781.56;;;12.64;86.84
7768;BME280;3928;42.626;23.382;2023-03-22T01:22:00;93786.88;;;12.59;87.69
7768;BME280;3928;42.626;23.382;2023-03-22T01:24:27;93781.09;;;12.53;88.19
7768;BME280;3928;42.626;23.382;2023-03-22T01:26:54;93769.78;;;12.30;88.95
7768;BME280;3928;42.626;23.382;2023-03-22T01:29:20;93774.66;;;12.40;89.43
7768;BME280;3928;42.626;23.382;2023-03-22T01:31:47;93775.16;;;12.24;90.35
7768;BME280;3928;42.626;23.382;2023-03-22T01:34:16;93779.72;;;12.15;91.44
7768;BME280;3928;42.626;23.382;2023-03-22T01:36:43;93773.84;;;11.83;93.18
7768;BME280;3928;42.626;23.382;2023-03-22T01:39:10;93771.16;;;11.88;93.51
7768;BME280;3928;42.626;23.382;2023-03-22T01:41:37;93778.31;;;11.77;94.86
7768;BME280;3928;42.626;23.382;2023-03-22T01:44:11;93778.19;;;11.81;94.54
7768;BME280;3928;42.626;23.382;2023-03-22T01:46:38;93774.81;;;11.79;94.09
7768;BME280;3928;42.626;23.382;2023-03-22T01:49:08;93764.72;;;11.71;94.80
7768;BME280;3928;42.626;23.382;2023-03-22T01:51:39;93776.56;;;11.77;94.87
7768;BME280;3928;42.626;23.382;2023-03-22T01:54:09;93767.22;;;11.75;94.81
7768;BME280;3928;42.626;23.382;2023-03-22T01:56:39;93767.41;;;11.68;94.98
7768;BME280;3928;42.626;23.382;2023-03-22T01:59:07;93763.69;;;11.49;95.80
7768;BME280;3928;42.626;23.382;2023-03-22T02:01:36;93768.38;;;11.64;96.25
7768;BME280;3928;42.626;23.382;2023-03-22T02:04:06;93770.84;;;11.67;95.85
7768;BME280;3928;42.626;23.382;2023-03-22T02:06:35;93763.81;;;11.74;95.62
7768;BME280;3928;42.626;23.382;2023-03-22T02:09:05;93763.66;;;11.80;95.53
7768;BME280;3928;42.626;23.382;2023-03-22T02:11:34;93771.31;;;11.82;94.90
7768;BME280;3928;42.626;23.382;2023-03-22T02:14:30;93758.72;;;11.43;95.77
7768;BME280;3928;42.626;23.382;2023-03-22T02:17:16;93777.34;;;11.51;96.59
7768;BME280;3928;42.626;23.382;2023-03-22T02:20:06;93774.84;;;11.48;
7768;BME280;3928;42.626;23.382;2023-03-22T02:23:03;93782.47;;;11.51;96.75
7768;BME280;3928;42.626;23.382;2023-03-22T02:28:43;93776.00;;;11.97;95.86
7768;BME280;3928;42.626;23.382;2023-03-22T02:31:31;93779.78;;;12.13;94.88
7768;BME280;3928;42.626;23.382;2023-03-22T02:34:35;93783.47;;;12.33;94.06
7768;BME280;3928;42.626;23.382;2023-03-22T02:37:29;93791.53;;;12.48;92.99
7768;BME280;3928;42.626;23.382;2023-03-22T02:40:11;93785.94;;;12.62;92.40
7768;BME280;3928;42.626;23.382;2023-03-22T02:42:46;93791.53;;;12.75;91.74
7768;BME280;3928;42.626;23.382;2023-03-22T02:45:18;93785.22;;;12.83;90.78
7768;BME280;3928;42.626;23.382;2023-03-22T02:47:54;93777.44;;;12.85;89.43
7768;BME280;3928;42.626;23.382;2023-03-22T02:50:25;93799.44;;;12.95;88.59
7768;BME280;3928;42.626;23.382;2023-03-22T02:52:58;93800.28;;;12.96;88.51
7768;BME280;3928;42.626;23.382;2023-03-22T02:55:34;93793.22;;;13.01;88.06
7768;BME280;3928;42.626;23.382;2023-03-22T02:58:06;93798.47;;;12.98;87.61
7768;BME280;3928;42.626;23.382;2023-03-22T03:00:37;93797.81;;;12.66;87.32
7768;BME280;3928;42.626;23.382;2023-03-22T03:03:07;93799.13;;;12.78;87.43
7768;BME280;3928;42.626;23.382;2023-03-22T03:05:39;93776.34;;;12.67;86.87
7768;BME280;3928;42.626;23.382;2023-03-22T03:08:09;93790.91;;;12.68;87.33
7768;BME280;3928;42.626;23.382;2023-03-22T03:10:40;93787.72;;;12.60;87.99
7768;BME280;3928;42.626;23.382;2023-03-22T03:13:10;93801.22;;;12.40;88.32
7768;BME280;3928;42.626;23.382;2023-03-22T03:15:38;93784.00;;;12.16;89.37
7768;BME280;3928;42.626;23.382;2023-03-22T03:18:18;93806.19;;;12.18;90.10
7768;BME280;3928;42.626;23.382;2023-03-22T03:20:57;93801.88;;;12.19;90.45
7768;BME280;3928;42.626;23.382;2023-03-22T03:23:33;93804.66;;;12.13;89.64
7768;BME280;3928;42.626;23.382;2023-03-22T03:26:08;93799.75;;;12.05;90.29
7768;BME280;3928;42.626;23.382;2023-03-22T03:28:41;93804.56;;;11.88;91.32
7768;BME280;3928;42.626;23.382;2023-03-22T03:31:21;93800.38;;;11.85;91.58
7768;BME280;3928;42.626;23.382;2023-03-22T03:33:56;93786.13;;;11.74;91.71
7768;BME280;3928;42.626;23.382;2023-03-22T03:36:26;93794.28;;;11.88;91.13
7768;BME280;3928;42.626;23.382;2023-03-22T03:38:55;93800.97;;;11.93;90.79
7768;BME280;3928;42.626;23.382;2023-03-22T03:41:26;93798.16;;;12.01;90.37
7768;BME280;3928;42.626;23.382;2023-03-22T03:43:56;93799.16;;;11.97;90.37
7768;BME280;3928;42.626;23.382;2023-03-22T03:46:24;93811.53;;;12.12;89.63
7768;BME280;3928;42.626;23.382;2023-03-22T03:48:51;93802.09;;;12.13;89.33
7768;BME280;3928;42.626;23.382;2023-03-22T03:51:19;93810.50;;;12.18;87.93
7768;BME280;3928;42.626;23.382;2023-03-22T03:53:45;93806.44;;;12.11;87.62
7768;BME280;3928;42.626;23.382;2023-03-22T03:56:12;93806.56;;;12.08;88.46
7768;BME280;3928;42.626;23.382;2023-03-22T03:58:41;93815.19;;;12.05;88.13
7768;BME280;3928;42.626;23.382;2023-03-22T04:01:07;93814.44;;;12.02;88.34
7768;BME280;3928;42.626;23.382;2023-03-22T04:03:34;93812.00;;;11.97;88.86
7768;BME280;3928;42.626;23.382;2023-03-22T04:06:02;93811.13;;;11.98;88.70
7768;BME280;3928;42.626;23.382;2023-03-22T04:08:29;93813.41;;;12.07;88.56
7768;BME280;3928;42.626;23.382;2023-03-22T04:10:56;93818.00;;;11.97;88.47
7768;BME280;3928;42.626;23.382;2023-03-22T04:13:22;93816.13;;;12.03;88.56
7768;BME280;3928;42.626;23.382;2023-03-22T04:15:54;93763.34;;;11.61;88.96
7768;BME280;3928;42.626;23.382;2023-03-22T04:18:22;93815.50;;;11.94;88.85
7768;BME280;3928;42.626;23.382;2023-03-22T04:20:49;93817.31;;;11.91;89.09
7768;BME280;3928;42.626;23.382;2023-03-22T04:23:18;93825.22;;;11.85;89.42
7768;BME280;3928;42.626;23.382;2023-03-22T04:25:47;93831.34;;;11.81;89.74
7768;BME280;3928;42.626;23.382;2023-03-22T04:28:15;93828.19;;;11.69;90.63
7768;BME280;3928;42.626;23.382;2023-03-22T04:30:42;93838.56;;;11.66;90.82
7768;BME280;3928;42.626;23.382;2023-03-22T04:33:11;93807.72;;;11.37;92.28
7768;BME280;3928;42.626;23.382;2023-03-22T04:35:39;93839.22;;;11.43;92.50
7768;BME280;3928;42.626;23.382;2023-03-22T04:38:06;93847.66;;;11.47;92.60
7768;BME280;3928;42.626;23.382;2023-03-22T04:40:34;93836.19;;;11.60;92.87
7768;BME280;3928;42.626;23.382;2023-03-22T04:43:03;93835.00;;;11.70;92.67
7768;BME280;3928;42.626;23.382;2023-03-22T04:45:30;93832.44;;;11.72;92.24
7768;BME280;3928;42.626;23.382;2023-03-22T04:48:00;93830.59;;;11.76;92.29
7768;BME280;3928;42.626;23.382;2023-03-22T04:50:28;93839.38;;;11.68;92.64
7768;BME280;3928;42.626;23.382;2023-03-22T04:52:55;93840.72;;;11.82;92.62
7768;BME280;3928;42.626;23.382;2023-03-22T04:55:22;93846.91;;;11.75;92.63
7768;BME280;3928;42.626;23.382;2023-03-22T04:57:52;93848.81;;;11.68;93.70
7768;BME280;3928;42.626;23.382;2023-03-22T05:00:19;93851.13;;;11.77;93.27
7768;BME280;3928;42.626;23.382;2023-03-22T05:02:47;93854.69;;;11.71;93.19
7768;BME280;3928;42.626;23.382;2023-03-22T05:05:14;93857.59;;;11.59;94.20
7768;BME280;3928;42.626;23.382;2023-03-22T05:07:42;93857.59;;;11.59;93.75
7768;BME280;3928;42.626;23.382;2023-03-22T05:10:11;93859.13;;;11.66;93.94
7768;BME280;3928;42.626;23.382;2023-03-22T05:12:38;93860.34;;;11.53;93.88
7768;BME280;3928;42.626;23.382;2023-03-22T05:15:06;93864.81;;;11.47;94.76
7768;BME280;3928;42.626;23.382;2023-03-22T05:17:33;93866.72;;;11.40;95.15
7768;BME280;3928;42.626;23.382;2023-03-22T05:20:00;93869.91;;;11.48;94.60
7768;BME280;3928;42.626;23.382;2023-03-22T05:22:34;93864.38;;;11.63;94.85
7768;BME280;3928;42.626;23.382;2023-03-22T05:25:05;93864.84;;;11.76;94.19
7768;BME280;3928;42.626;23.382;2023-03-22T05:27:32;93850.22;;;11.78;93.92
7768;BME280;3928;42.626;23.382;2023-03-22T05:29:59;93877.56;;;11.82;92.85
7768;BME280;3928;42.626;23.382;2023-03-22T05:32:26;93869.06;;;11.79;92.68
7768;BME280;3928;42.626;23.382;2023-03-22T05:34:53;93869.25;;;11.73;92.82
7768;BME280;3928;42.626;23.382;2023-03-22T05:37:20;93866.28;;;11.55;93.16
7768;BME280;3928;42.626;23.382;2023-03-22T05:39:47;93880.22;;;11.79;93.96
7768;BME280;3928;42.626;23.382;2023-03-22T05:42:15;93883.13;;;11.98;93.33
7768;BME280;3928;42.626;23.382;2023-03-22T05:44:42;93873.44;;;12.06;91.87
7768;BME280;3928;42.626;23.382;2023-03-22T05:47:09;93876.06;;;12.05;91.22
7768;BME280;3928;42.626;23.382;2023-03-22T05:49:36;93878.16;;;12.21;92.25
7768;BME280;3928;42.626;23.382;2023-03-22T05:52:03;93852.50;;;12.18;90.62
7768;BME280;3928;42.626;23.382;2023-03-22T05:54:30;93886.91;;;12.44;89.14
7768;BME280;3928;42.626;23.382;2023-03-22T05:56:58;93885.91;;;12.48;88.60
7768;BME280;3928;42.626;23.382;2023-03-22T05:59:26;93894.16;;;12.59;88.36
7768;BME280;3928;42.626;23.382;2023-03-22T06:01:53;93895.06;;;12.58;87.18
7768;BME280;3928;42.626;23.382;2023-03-22T06:04:20;93897.09;;;12.47;86.97
7768;BME280;3928;42.626;23.382;2023-03-22T06:06:47;93897.63;;;12.58;87.57
7768;BME280;3928;42.626;23.382;2023-03-22T06:09:14;93903.66;;;12.57;86.82
7768;BME280;3928;42.626;23.382;2023-03-22T06:11:41;93907.06;;;12.57;86.41
7768;BME280;3928;42.626;23.382;2023-03-22T06:14:08;93902.94;;;12.52;86.97
7768;BME280;3928;42.626;23.382;2023-03-22T06:16:36;93904.63;;;12.53;87.43
7768;BME280;3928;42.626;23.382;2023-03-22T06:19:03;93903.88;;;12.49;87.80
7768;BME280;3928;42.626;23.382;2023-03-22T06:21:30;93910.53;;;12.56;88.26
7768;BME280;3928;42.626;23.382;2023-03-22T06:23:56;93913.25;;;12.52;87.52
7768;BME280;3928;42.626;23.382;2023-03-22T06:26:23;93910.88;;;12.46;86.71
7768;BME280;3928;42.626;23.382;2023-03-22T06:28:50;93907.09;;;12.28;88.43
7768;BME280;3928;42.626;23.382;2023-03-22T06:31:17;93907.66;;;12.38;88.24
7768;BME280;3928;42.626;23.382;2023-03-22T06:33:45;93905.09;;;12.38;89.12
7768;BME280;3928;42.626;23.382;2023-03-22T06:36:13;93904.63;;;12.25;89.00
7768;BME280;3928;42.626;23.382;2023-03-22T06:38:40;93912.91;;;12.35;89.49
7768;BME280;3928;42.626;23.382;2023-03-22T06:41:07;93908.66;;;12.34;88.68
7768;BME280;3928;42.626;23.382;2023-03-22T06:43:34;93893.28;;;12.30;88.13
7768;BME280;3928;42.626;23.382;2023-03-22T06:46:00;93916.00;;;12.46;88.31
7768;BME280;3928;42.626;23.382;2023-03-22T06:48:27;93897.78;;;12.52;88.48
7768;BME280;3928;42.626;23.382;2023-03-22T06:50:55;93920.19;;;12.76;87.90
7768;BME280;3928;42.626;23.382;2023-03-22T06:53:24;93914.59;;;12.92;87.60
7768;BME280;3928;42.626;23.382;2023-03-22T06:55:50;93928.75;;;13.05;87.11
7768;BME280;3928;42.626;23.382;2023-03-22T06:58:17;93928.38;;;13.17;86.60
7768;BME280;3928;42.626;23.382;2023-03-22T07:00:44;93928.38;;;13.17;85.60
7768;BME280;3928;42.626;23.382;2023-03-22T07:03:11;93936.69;;;13.25;84.49
7768;BME280;3928;42.626;23.382;2023-03-22T07:05:38;93934.94;;;13.27;84.55
7768;BME280;3928;42.626;23.382;2023-03-22T07:08:07;93934.81;;;13.30;83.71
7768;BME280;3928;42.626;23.382;2023-03-22T07:10:34;93944.97;;;13.35;83.05
7768;BME280;3928;42.626;23.382;2023-03-22T07:13:00;93943.16;;;13.38;82.55
7768;BME280;3928;42.626;23.382;2023-03-22T07:15:28;93947.41;;;13.39;82.26
7768;BME280;3928;42.626;23.382;2023-03-22T07:17:55;93953.25;;;13.44;82.50
7768;BME280;3928;42.626;23.382;2023-03-22T07:20:22;93960.81;;;13.49;81.81
7768;BME280;3928;42.626;23.382;2023-03-22T07:22:49;93950.88;;;13.38;82.57
7768;BME280;3928;42.626;23.382;2023-03-22T07:25:17;93953.75;;;13.29;82.63
7768;BME280;3928;42.626;23.382;2023-03-22T07:27:44;93960.88;;;13.21;83.01
7768;BME280;3928;42.626;23.382;2023-03-22T07:30:12;93959.09;;;13.23;83.46
7768;BME280;3928;42.626;23.382;2023-03-22T07:32:39;93972.09;;;13.20;83.90
7768;BME280;3928;42.626;23.382;2023-03-22T07:35:06;93967.81;;;13.19;84.43
7768;BME280;3928;42.626;23.382;2023-03-22T07:37:33;93974.06;;;13.10;84.26
7768;BME280;3928;42.626;23.382;2023-03-22T07:40:00;93964.81;;;13.05;83.91
7768;BME280;3928;42.626;23.382;2023-03-22T07:42:29;93979.06;;;13.16;84.20
7768;BME280;3928;42.626;23.382;2023-03-22T07:44:56;93985.72;;;13.24;83.55
7768;BME280;3928;42.626;23.382;2023-03-22T07:47:23;93976.06;;;13.30;82.81
7768;BME280;3928;42.626;23.382;2023-03-22T07:49:50;93974.94;;;13.37;81.58
7768;BME280;3928;42.626;23.382;2023-03-22T07:52:17;93978.28;;;13.41;80.19
7768;BME280;3928;42.626;23.382;2023-03-22T07:54:44;93980.44;;;13.28;80.14
7768;BME280;3928;42.626;23.382;2023-03-22T07:57:11;93984.97;;;13.20;81.11
7768;BME280;3928;42.626;23.382;2023-03-22T07:59:39;93983.69;;;13.33;82.08
7768;BME280;3928;42.626;23.382;2023-03-22T08:02:07;93982.69;;;13.37;81.56
7768;BME280;3928;42.626;23.382;2023-03-22T08:04:34;93984.56;;;13.32;80.83
7768;BME280;3928;42.626;23.382;2023-03-22T08:07:01;93975.06;;;13.34;80.42
7768;BME280;3928;42.626;23.382;2023-03-22T08:09:28;93979.13;;;13.41;79.97
7768;BME280;3928;42.626;23.382;2023-03-22T08:11:55;93979.81;;;13.46;80.46
7768;BME280;3928;42.626;23.382;2023-03-22T08:14:22;93980.41;;;13.55;80.59
7768;BME280;3928;42.626;23.382;2023-03-22T08:16:50;93989.53;;;13.65;79.56
7768;BME280;3928;42.626;23.382;2023-03-22T08:19:16;93987.56;;;13.71;79.94
7768;BME280;3928;42.626;23.382;2023-03-22T08:21:43;93979.69;;;13.76;78.86
7768;BME280;3928;42.626;23.382;2023-03-22T08:24:10;93980.31;;;13.83;78.82
7768;BME280;3928;42.626;23.382;2023-03-22T08:26:37;93977.19;;;13.73;78.62
7768;BME280;3928;42.626;23.382;2023-03-22T08:29:03;93984.66;;;13.56;78.07
7768;BME280;3928;42.626;23.382;2023-03-22T08:31:30;93992.28;;;13.59;78.20
7768;BME280;3928;42.626;23.382;2023-03-22T08:33:58;93991.22;;;13.66;79.22
7768;BME280;3928;42.626;23.382;2023-03-22T08:36:25;93993.78;;;13.66;78.53
7768;BME280;3928;42.626;23.382;2023-03-22T08:38:53;93985.69;;;13.52;79.16
7768;BME280;3928;42.626;23.382;2023-03-22T08:41:20;93968.44;;;13.27;80.50
7768;BME280;3928;42.626;23.382;2023-03-22T08:43:48;93992.97;;;13.39;80.97
7768;BME280;3928;42.626;23.382;2023-03-22T08:46:15;93999.03;;;13.36;81.31
7768;BME280;3928;42.626;23.382;2023-03-22T08:48:42;93987.25;;;13.29;81.50
7768;BME280;3928;42.626;23.382;2023-03-22T08:51:16;93995.00;;;13.29;81.44
7768;BME280;3928;42.626;23.382;2023-03-22T08:53:43;93983.97;;;13.24;81.68
7768;BME280;3928;42.626;23.382;2023-03-22T08:56:10;93998.97;;;13.39;81.34
7768;BME280;3928;42.626;23.382;2023-03-22T08:58:39;94000.25;;;13.53;80.89
7768;BME280;3928;42.626;23.382;2023-03-22T09:01:09;93995.72;;;13.59;79.15
7768;BME280;3928;42.626;23.382;2023-03-22T09:03:36;94001.75;;;13.58;78.65
7768;BME280;3928;42.626;23.382;2023-03-22T09:06:04;93985.34;;;13.61;78.57
7768;BME280;3928;42.626;23.382;2023-03-22T09:08:32;94010.41;;;13.82;78.33
7768;BME280;3928;42.626;23.382;2023-03-22T09:10:59;94010.94;;;13.92;78.09
7768;BME280;3928;42.626;23.382;2023-03-22T09:13:26;94002.97;;;13.99;76.69
7768;BME280;3928;42.626;23.382;2023-03-22T09:15:55;94012.06;;;14.10;77.98
7768;BME280;3928;42.626;23.382;2023-03-22T09:18:22;94007.47;;;14.18;77.92
7768;BME280;3928;42.626;23.382;2023-03-22T09:20:50;94006.34;;;14.25;77.29
7768;BME280;3928;42.626;23.382;2023-03-22T09:23:17;94006.13;;;14.31;77.23
7768;BME280;3928;42.626;23.382;2023-03-22T09:25:46;93983.00;;;14.28;76.88
7768;BME280;3928;42.626;23.382;2023-03-22T09:28:13;94004.91;;;14.41;75.24
7768;BME280;3928;42.626;23.382;2023-03-22T09:30:40;94003.81;;;14.48;74.71
7768;BME280;3928;42.626;23.382;2023-03-22T09:33:08;94002.81;;;14.52;74.91
7768;BME280;3928;42.626;23.382;2023-03-22T09:35:39;94005.19;;;14.58;75.66
7768;BME280;3928;42.626;23.382;2023-03-22T09:38:06;94011.78;;;14.66;76.49
7768;BME280;3928;42.626;23.382;2023-03-22T09:40:34;94006.75;;;14.62;76.90
7768;BME280;3928;42.626;23.382;2023-03-22T09:43:06;94007.50;;;14.65;75.24
7768;BME280;3928;42.626;23.382;2023-03-22T09:45:38;94001.00;;;14.54;76.08
7768;BME280;3928;42.626;23.382;2023-03-22T09:48:15;94006.91;;;14.58;76.68
7768;BME280;3928;42.626;23.382;2023-03-22T09:50:45;94001.00;;;14.54;76.84
7768;BME280;3928;42.626;23.382;2023-03-22T09:53:14;93999.84;;;14.38;76.67
7768;BME280;3928;42.626;23.382;2023-03-22T09:55:45;94008.88;;;14.26;77.35
7768;BME280;3928;42.626;23.382;2023-03-22T09:58:22;94003.97;;;14.19;78.39
7768;BME280;3928;42.626;23.382;2023-03-22T10:00:55;93992.81;;;14.18;78.56
7768;BME280;3928;42.626;23.382;2023-03-22T10:03:32;94016.06;;;14.42;78.96
7768;BME280;3928;42.626;23.382;2023-03-22T10:06:03;94013.38;;;14.46;78.82
7768;BME280;3928;42.626;23.382;2023-03-22T10:08:45;94007.19;;;14.50;78.34
7768;BME280;3928;42.626;23.382;2023-03-22T10:11:19;94026.69;;;14.59;78.17
7768;BME280;3928;42.626;23.382;2023-03-22T10:13:57;94038.56;;;14.63;77.79
7768;BME280;3928;42.626;23.382;2023-03-22T10:16:28;94028.97;;;14.67;74.29
7768;BME280;3928;42.626;23.382;2023-03-22T10:19:02;94026.22;;;14.71;73.95
7768;BME280;3928;42.626;23.382;2023-03-22T10:21:32;94027.06;;;14.72;73.92
7768;BME280;3928;42.626;23.382;2023-03-22T10:24:03;93804.75;;;13.40;74.03
7768;BME280;3928;42.626;23.382;2023-03-22T10:26:35;94024.53;;;14.70;73.11
7768;BME280;3928;42.626;23.382;2023-03-22T10:29:11;94027.63;;;14.56;72.47
7768;BME280;3928;42.626;23.382;2023-03-22T10:31:41;94019.13;;;14.53;72.55
7768;BME280;3928;42.626;23.382;2023-03-22T10:34:15;93993.97;;;14.34;73.21
7768;BME280;3928;42.626;23.382;2023-03-22T10:36:45;93960.69;;;14.27;74.68
7768;BME280;3928;42.626;23.382;2023-03-22T10:39:25;94020.31;;;14.68;75.14
7768;BME280;3928;42.626;23.382;2023-03-22T10:41:55;94020.03;;;14.75;74.68
7768;BME280;3928;42.626;23.382;2023-03-22T10:44:25;94021.59;;;14.79;74.19
7768;BME280;3928;42.626;23.382;2023-03-22T10:46:55;94007.19;;;14.74;73.96
7768;BME280;3928;42.626;23.382;2023-03-22T10:49:26;94023.06;;;14.86;73.86
7768;BME280;3928;42.626;23.382;2023-03-22T10:51:58;94024.69;;;14.89;74.42
7768;BME280;3928;42.626;23.382;2023-03-22T10:54:28;94020.28;;;14.91;74.93
7768;BME280;3928;42.626;23.382;2023-03-22T10:56:55;94020.41;;;14.88;75.78
7768;BME280;3928;42.626;23.382;2023-03-22T10:59:43;94022.88;;;14.91;75.15
7768;BME280;3928;42.626;23.382;2023-03-22T11:02:20;94023.78;;;14.90;75.12
7768;BME280;3928;42.626;23.382;2023-03-22T11:04:49;94012.59;;;14.89;74.57
7768;BME280;3928;42.626;23.382;2023-03-22T11:07:29;94018.75;;;14.87;74.54
7768;BME280;3928;42.626;23.382;2023-03-22T11:09:58;93967.56;;;14.51;75.33
7768;BME280;3928;42.626;23.382;2023-03-22T11:12:25;94007.81;;;14.80;75.10
7768;BME280;3928;42.626;23.382;2023-03-22T11:14:55;94013.69;;;14.84;74.01
7768;BME280;3928;42.626;23.382;2023-03-22T11:17:23;94017.06;;;14.86;74.44
7768;BME280;3928;42.626;23.382;2023-03-22T11:19:52;94013.34;;;14.93;74.00
7768;BME280;3928;42.626;23.382;2023-03-22T11:22:25;94000.72;;;14.85;72.94
7768;BME280;3928;42.626;23.382;2023-03-22T11:24:57;94008.88;;;14.75;72.45
7768;BME280;3928;42.626;23.382;2023-03-22T11:27:26;94003.31;;;14.62;73.15
7768;BME280;3928;42.626;23.382;2023-03-22T11:29:57;93999.38;;;14.52;74.06
7768;BME280;3928;42.626;23.382;2023-03-22T11:32:27;93990.78;;;14.51;73.43
7768;BME280;3928;42.626;23.382;2023-03-22T11:34:59;93984.31;;;14.40;74.19
7768;BME280;3928;42.626;23.382;2023-03-22T11:37:26;94005.78;;;14.65;74.59
7768;BME280;3928;42.626;23.382;2023-03-22T11:39:58;94008.22;;;14.70;74.83
7768;BME280;3928;42.626;23.382;2023-03-22T11:42:26;94011.50;;;14.73;74.43
7768;BME280;3928;42.626;23.382;2023-03-22T11:44:55;94008.88;;;14.75;74.41
7768;BME280;3928;42.626;23.382;2023-03-22T11:47:24;94009.31;;;14.62;74.65
7768;BME280;3928;42.626;23.382;2023-03-22T11:49:52;93999.84;;;14.63;75.16
7768;BME280;3928;42.626;23.382;2023-03-22T11:52:23;93997.88;;;14.70;75.23
7768;BME280;3928;42.626;23.382;2023-03-22T11:54:52;94007.56;;;14.63;74.43
7768;BME280;3928;42.626;23.382;2023-03-22T11:57:22;94009.44;;;14.59;74.42
7768;BME280;3928;42.626;23.382;2023-03-22T11:59:56;94005.06;;;14.61;75.03
7768;BME280;3928;42.626;23.382;2023-03-22T12:02:27;94000.53;;;14.43;75.37
7768;BME280;3928;42.626;23.382;2023-03-22T12:04:58;93983.91;;;14.27;75.75
7768;BME280;3928;42.626;23.382;2023-03-22T12:07:28;94013.38;;;14.46;75.86
7768;BME280;3928;42.626;23.382;2023-03-22T12:09:57;94012.47;;;14.47;76.59
7768;BME280;3928;42.626;23.382;2023-03-22T12:12:28;94007.13;;;14.52;76.26
7768;BME280;3928;42.626;23.382;2023-03-22T12:15:00;94007.25;;;14.49;75.95
7768;BME280;3928;42.626;23.382;2023-03-22T12:17:34;94006.69;;;14.39;76.11
7768;BME280;3928;42.626;23.382;2023-03-22T12:20:06;93978.97;;;13.97;77.92
7768;BME280;3928;42.626;23.382;2023-03-22T12:22:40;94006.09;;;14.08;78.54
7768;BME280;3928;42.626;23.382;2023-03-22T12:25:12;93999.47;;;14.00;79.19
7768;BME280;3928;42.626;23.382;2023-03-22T12:27:43;94003.03;;;13.96;79.50
7768;BME280;3928;42.626;23.382;2023-03-22T12:30:16;94004.84;;;13.94;79.05
7768;BME280;3928;42.626;23.382;2023-03-22T12:32:46;94000.16;;;14.05;78.71
7768;BME280;3928;42.626;23.382;2023-03-22T12:35:17;94005.63;;;14.21;78.82
7768;BME280;3928;42.626;23.382;2023-03-22T12:37:50;93999.72;;;14.18;78.63
7768;BME280;3928;42.626;23.382;2023-03-22T12:40:22;93981.19;;;14.07;78.29
7768;BME280;3928;42.626;23.382;2023-03-22T12:42:56;93989.63;;;14.12;78.11
7768;BME280;3928;42.626;23.382;2023-03-22T12:45:27;93991.91;;;14.21;78.92
7768;BME280;3928;42.626;23.382;2023-03-22T12:48:02;93976.00;;;14.31;78.33
7768;BME280;3928;42.626;23.382;2023-03-22T12:50:34;93972.97;;;14.44;79.32
7768;BME280;3928;42.626;23.382;2023-03-22T12:53:03;93990.84;;;14.73;77.52
7768;BME280;3928;42.626;23.382;2023-03-22T12:55:33;93988.97;;;14.77;75.81
7768;BME280;3928;42.626;23.382;2023-03-22T13:00:51;93982.47;;;14.67;70.31
7768;BME280;3928;42.626;23.382;2023-03-22T13:03:24;93985.31;;;14.60;71.29
7768;BME280;3928;42.626;23.382;2023-03-22T13:06:04;93971.94;;;14.73;70.15
7768;BME280;3928;42.626;23.382;2023-03-22T13:09:11;93970.31;;;14.70;69.37
7768;BME280;3928;42.626;23.382;2023-03-22T13:11:40;93978.66;;;14.53;69.73
7768;BME280;3928;42.626;23.382;2023-03-22T13:14:11;93943.72;;;14.45;69.37
7768;BME280;3928;42.626;23.382;2023-03-22T13:16:48;93986.72;;;14.68;69.14
7768;BME280;3928;42.626;23.382;2023-03-22T13:19:28;93980.94;;;14.84;69.78
7768;BME280;3928;42.626;23.382;2023-03-22T13:22:18;93983.56;;;15.06;69.48
7768;BME280;3928;42.626;23.382;2023-03-22T13:25:04;93977.00;;;15.19;68.86
7768;BME280;3928;42.626;23.382;2023-03-22T13:27:37;93973.66;;;15.38;67.33
7768;BME280;3928;42.626;23.382;2023-03-22T13:30:14;93971.53;;;15.47;67.06